createdAt,value
2019-05-10T00:02:59.089Z,2.67
2019-05-10T00:08:29.450Z,6.27
2019-05-10T00:13:55.963Z,3.37
2019-05-10T00:19:24.807Z,2.40
2019-05-10T00:25:04.291Z,3.30
2019-05-10T00:30:25.804Z,3.23
2019-05-10T00:35:56.316Z,4.57
2019-05-10T00:41:26.365Z,3.23
2019-05-10T00:46:54.811Z,3.77
2019-05-10T00:52:27.576Z,3.37
2019-05-10T01:00:43.522Z,3.73
2019-05-10T01:03:28.254Z,3.27
2019-05-10T01:08:55.578Z,3.73
2019-05-10T01:14:22.986Z,3.63
2019-05-10T01:19:53.305Z,3.67
2019-05-10T01:25:34.113Z,3.67
2019-05-10T01:30:47.457Z,3.70
2019-05-10T01:36:18.501Z,3.20
2019-05-10T01:41:44.869Z,4.80
2019-05-10T01:50:06.105Z,5.83
2019-05-10T01:55:50.874Z,3.30
2019-05-10T02:07:00.087Z,3.73
2019-05-10T02:12:25.878Z,4.70
2019-05-10T02:17:54.590Z,2.83
2019-05-10T02:26:20.503Z,4.27
2019-05-10T02:29:07.235Z,5.10
2019-05-10T02:31:52.427Z,4.83
2019-05-10T02:37:20.616Z,2.10
2019-05-10T02:42:47.293Z,4.37
2019-05-10T02:48:16.544Z,2.30
2019-05-10T02:53:50.738Z,2.30
2019-05-10T02:59:24.135Z,4.23
2019-05-10T03:04:53.090Z,2.70
2019-05-10T03:10:42.077Z,2.40
2019-05-10T03:16:00.727Z,3.10
2019-05-10T03:21:28.723Z,5.40
2019-05-10T03:26:59.765Z,3.37
2019-05-10T03:32:30.637Z,3.17
2019-05-10T03:38:00.466Z,4.30
2019-05-10T03:43:27.255Z,3.90
2019-05-10T03:48:59.470Z,3.53
2019-05-10T03:54:28.176Z,3.63
2019-05-10T04:00:04.189Z,3.43
2019-05-10T04:05:35.761Z,2.97
2019-05-10T04:11:08.161Z,3.37
2019-05-10T04:13:55.020Z,5.80
2019-05-10T04:23:22.444Z,13.77
2019-05-10T04:26:14.709Z,4.27
2019-05-10T04:29:07.991Z,8.47
2019-05-10T04:35:23.417Z,8.70
2019-05-10T04:38:13.831Z,9.67
2019-05-10T04:41:03.958Z,9.50
2019-05-10T04:47:04.025Z,4.87
2019-05-10T04:49:55.358Z,4.90
2019-05-10T04:52:45.633Z,6.03
2019-05-10T04:55:36.328Z,3.93
2019-05-10T04:58:27.332Z,4.47
2019-05-10T05:01:19.070Z,5.33
2019-05-10T05:04:08.727Z,4.83
2019-05-10T05:06:59.143Z,3.60
2019-05-10T05:09:44.529Z,8.07
2019-05-10T05:15:14.452Z,11.23
2019-05-10T05:20:34.724Z,7.97
2019-05-10T05:23:06.328Z,9.43
2019-05-10T05:25:56.114Z,6.60
2019-05-10T05:28:28.178Z,4.07
2019-05-10T05:33:47.356Z,5.30
2019-05-10T05:36:19.509Z,7.77
2019-05-10T05:39:13.648Z,4.30
2019-05-10T05:42:03.584Z,4.77
2019-05-10T05:44:35.255Z,5.53
2019-05-10T05:47:07.737Z,5.50
2019-05-10T05:49:58.460Z,4.63
2019-05-10T05:52:30.801Z,5.27
2019-05-10T05:55:23.127Z,6.00
2019-05-10T05:57:59.120Z,4.50
2019-05-10T06:00:29.739Z,4.80
2019-05-10T06:03:29.561Z,4.30
2019-05-10T06:06:28.497Z,7.87
2019-05-10T06:09:25.111Z,5.57
2019-05-10T06:12:23.439Z,3.93
2019-05-10T06:14:52.359Z,5.30
2019-05-10T06:17:29.340Z,3.97
2019-05-10T06:20:06.073Z,3.67
2019-05-10T06:22:38.068Z,3.67
2019-05-10T06:25:39.198Z,3.50
2019-05-10T06:28:26.544Z,3.80
2019-05-10T06:31:23.879Z,4.93
2019-05-10T06:33:46.838Z,3.83
2019-05-10T06:36:21.448Z,4.47
2019-05-10T06:38:52.212Z,6.17
2019-05-10T06:41:42.278Z,5.37
2019-05-10T06:44:33.139Z,5.47
2019-05-10T06:47:26.240Z,9.80
2019-05-10T06:49:58.158Z,4.13
2019-05-10T06:52:47.838Z,5.27
2019-05-10T06:55:19.760Z,5.77
2019-05-10T06:57:59.316Z,7.77
2019-05-10T07:00:26.441Z,5.93
2019-05-10T07:02:56.533Z,5.80
2019-05-10T07:05:27.492Z,5.83
2019-05-10T07:07:59.464Z,4.40
2019-05-10T07:10:33.813Z,4.47
2019-05-10T07:13:24.314Z,4.67
2019-05-10T07:15:57.079Z,5.20
2019-05-10T07:18:27.194Z,5.60
2019-05-10T07:21:20.030Z,4.87
2019-05-10T07:24:09.585Z,4.47
2019-05-10T07:26:39.742Z,4.83
2019-05-10T07:29:48.883Z,5.60
2019-05-10T07:32:22.073Z,4.67
2019-05-10T07:34:58.997Z,5.40
2019-05-10T07:37:47.825Z,5.23
2019-05-10T07:40:38.150Z,4.80
2019-05-10T07:43:09.275Z,5.50
2019-05-10T07:45:41.410Z,5.23
2019-05-10T07:48:11.725Z,5.37
2019-05-10T07:51:01.793Z,6.03
2019-05-10T07:53:34.552Z,5.90
2019-05-10T07:56:28.156Z,7.20
2019-05-10T07:59:03.760Z,6.17
2019-05-10T08:01:55.585Z,6.03
2019-05-10T08:04:33.201Z,6.47
2019-05-10T08:07:18.615Z,6.23
2019-05-10T08:09:52.674Z,5.07
2019-05-10T08:12:55.325Z,4.80
2019-05-10T08:15:31.966Z,5.33
2019-05-10T08:18:24.126Z,9.17
2019-05-10T08:21:36.802Z,4.40
2019-05-10T08:24:22.167Z,3.83
2019-05-10T08:26:55.510Z,3.87
2019-05-10T08:30:22.565Z,3.20
2019-05-10T08:32:42.562Z,12.33
2019-05-10T08:35:35.839Z,7.23
2019-05-10T08:38:06.063Z,3.60
2019-05-10T08:44:23.472Z,2.77
2019-05-10T08:46:52.757Z,3.77
2019-05-10T08:49:57.562Z,4.80
2019-05-10T08:55:02.691Z,8.03
2019-05-10T08:57:53.559Z,3.30
2019-05-10T09:00:54.236Z,2.57
2019-05-10T09:03:19.817Z,3.80
2019-05-10T09:05:52.488Z,4.17
2019-05-10T09:08:44.022Z,3.30
2019-05-10T09:14:03.163Z,3.30
2019-05-10T09:17:00.756Z,3.80
2019-05-10T09:19:45.974Z,3.10
2019-05-10T09:22:17.867Z,2.17
2019-05-10T09:27:53.313Z,2.60
2019-05-10T09:30:56.480Z,3.70
2019-05-10T09:33:16.388Z,3.20
2019-05-10T09:35:51.745Z,2.47
2019-05-10T09:39:09.341Z,2.83
2019-05-10T09:41:44.652Z,3.10
2019-05-10T09:44:34.700Z,2.40
2019-05-10T09:47:43.728Z,4.27
2019-05-10T09:50:14.090Z,2.67
2019-05-10T09:53:03.836Z,3.42
2019-05-10T09:56:01.706Z,4.37
2019-05-10T09:58:48.415Z,2.55
2019-05-10T10:01:21.745Z,1.75
2019-05-10T10:03:53.310Z,2.30
2019-05-10T10:06:48.193Z,3.77
2019-05-10T10:09:18.607Z,2.60
2019-05-10T10:11:58.115Z,3.00
2019-05-10T10:14:37.795Z,2.30
2019-05-10T10:17:08.269Z,3.42
2019-05-10T10:19:40.720Z,4.80
2019-05-10T10:22:13.252Z,2.27
2019-05-10T10:24:48.938Z,2.00
2019-05-10T10:27:19.015Z,1.98
2019-05-10T10:29:50.710Z,2.17
2019-05-10T10:32:24.821Z,3.25
2019-05-10T10:35:17.531Z,3.27
2019-05-10T10:38:05.630Z,2.05
2019-05-10T10:40:44.074Z,2.50
2019-05-10T10:43:09.182Z,2.00
2019-05-10T10:50:09.054Z,1.85
2019-05-10T10:52:39.142Z,1.98
2019-05-10T10:55:34.612Z,1.47
2019-05-10T10:58:20.887Z,2.17
2019-05-10T11:00:52.910Z,1.60
2019-05-10T11:03:30.183Z,1.47
2019-05-10T11:09:53.685Z,1.32
2019-05-10T11:12:24.028Z,2.73
2019-05-10T11:14:52.932Z,1.52
2019-05-10T11:20:21.711Z,1.32
2019-05-10T11:22:53.474Z,4.50
2019-05-10T11:32:41.845Z,1.30
2019-05-10T11:35:22.653Z,1.07
2019-05-10T11:37:50.794Z,2.22
2019-05-10T11:40:29.776Z,1.12
2019-05-10T11:43:12.044Z,2.05
2019-05-10T11:45:44.210Z,1.50
2019-05-10T11:48:13.780Z,2.47
2019-05-10T11:51:11.241Z,1.37
2019-05-10T11:53:41.375Z,3.65
2019-05-10T11:56:14.100Z,0.88
2019-05-10T12:01:41.492Z,1.20
2019-05-10T12:04:13.007Z,1.35
2019-05-10T12:09:13.754Z,1.98
2019-05-10T12:11:51.768Z,1.05
2019-05-10T12:14:17.652Z,1.85
2019-05-10T12:17:13.808Z,1.05
2019-05-10T12:19:47.761Z,1.87
2019-05-10T12:25:59.930Z,1.40
2019-05-10T12:26:16.688Z,1.10
2019-05-10T12:27:07.498Z,1.00
2019-05-10T12:28:47.528Z,1.47
2019-05-10T12:31:41.440Z,2.02
2019-05-10T12:34:33.502Z,1.12
2019-05-10T12:37:08.332Z,1.42
2019-05-10T12:42:47.081Z,2.87
2019-05-10T12:45:17.049Z,3.00
2019-05-10T12:47:47.379Z,3.67
2019-05-10T12:50:37.095Z,1.70
2019-05-10T12:53:25.804Z,1.60
2019-05-10T12:55:57.231Z,1.37
2019-05-10T12:58:28.705Z,2.52
2019-05-10T13:00:59.205Z,1.62
2019-05-10T13:03:33.666Z,2.15
2019-05-10T13:06:03.353Z,3.27
2019-05-10T13:08:34.653Z,1.87
2019-05-10T13:15:14.161Z,1.50
2019-05-10T13:18:04.325Z,1.20
2019-05-10T13:20:38.733Z,1.30
2019-05-10T13:23:15.785Z,3.00
2019-05-10T13:26:01.445Z,4.15
2019-05-10T13:28:52.563Z,1.07
2019-05-10T13:35:20.112Z,1.10
2019-05-10T13:37:56.979Z,1.17
2019-05-10T13:40:25.921Z,1.77
2019-05-10T13:47:08.078Z,2.90
2019-05-10T13:49:40.267Z,1.37
2019-05-10T13:52:11.141Z,1.60
2019-05-10T13:54:44.082Z,1.22
2019-05-10T13:57:14.032Z,1.22
2019-05-10T13:59:48.861Z,1.60
2019-05-10T14:06:25.656Z,3.98
2019-05-10T14:08:57.436Z,1.57
2019-05-10T14:11:48.428Z,1.57
2019-05-10T14:14:26.267Z,1.30
2019-05-10T14:16:53.869Z,1.77
2019-05-10T14:19:25.515Z,1.15
2019-05-10T14:21:56.156Z,1.55
2019-05-10T14:24:28.507Z,1.42
2019-05-10T14:31:09.132Z,3.33
2019-05-10T14:33:39.061Z,1.57
2019-05-10T14:36:22.528Z,1.25
2019-05-10T14:45:54.638Z,1.65
2019-05-10T14:48:28.683Z,1.30
2019-05-10T14:51:03.296Z,1.35
2019-05-10T15:00:10.702Z,2.12
2019-05-10T15:03:03.831Z,1.17
2019-05-10T15:05:36.378Z,1.25
2019-05-10T15:08:25.362Z,1.47
2019-05-10T15:10:57.523Z,1.37
2019-05-10T15:13:49.588Z,2.08
2019-05-10T15:16:27.326Z,0.93
2019-05-10T15:22:00.645Z,1.10
2019-05-10T15:24:31.257Z,1.85
2019-05-10T15:27:24.087Z,1.00
2019-05-10T15:30:18.181Z,0.90
2019-05-10T15:32:50.354Z,1.52
2019-05-10T15:35:40.278Z,2.72
2019-05-10T15:38:11.973Z,0.80
2019-05-10T15:40:46.010Z,1.10
2019-05-10T15:43:37.627Z,1.50
2019-05-10T15:46:36.504Z,1.47
2019-05-10T15:49:00.361Z,2.90
2019-05-10T15:56:09.616Z,3.17
2019-05-10T15:58:42.836Z,1.32
2019-05-10T16:01:32.922Z,3.98
2019-05-10T16:14:21.117Z,1.00
2019-05-10T16:21:17.970Z,1.10
2019-05-10T16:24:07.616Z,2.17
2019-05-10T16:26:38.306Z,1.75
2019-05-10T16:32:59.651Z,1.75
2019-05-10T16:35:38.904Z,2.40
2019-05-10T16:44:13.004Z,1.10
2019-05-10T16:49:31.200Z,1.10
2019-05-10T16:58:53.080Z,1.23
2019-05-10T17:01:33.404Z,1.95
2019-05-10T17:10:54.119Z,1.85
2019-05-10T17:13:36.383Z,2.10
2019-05-10T17:16:26.451Z,1.45
2019-05-10T17:19:00.009Z,1.12
2019-05-10T17:21:30.725Z,0.93
2019-05-10T17:24:25.421Z,1.65
2019-05-10T17:27:15.457Z,1.80
2019-05-10T17:29:49.735Z,1.40
2019-05-10T17:39:56.800Z,0.95
2019-05-10T17:42:47.706Z,2.10
2019-05-10T17:45:40.444Z,1.40
2019-05-10T17:48:29.861Z,1.60
2019-05-10T17:54:39.134Z,2.52
2019-05-10T17:57:16.795Z,2.27
2019-05-10T17:59:46.963Z,2.90
2019-05-10T18:02:38.765Z,2.40
2019-05-10T18:08:59.339Z,2.05
2019-05-10T18:11:30.856Z,1.50
2019-05-10T18:14:01.584Z,2.02
2019-05-10T18:20:42.161Z,2.30
2019-05-10T18:23:33.031Z,2.42
2019-05-10T18:26:24.409Z,1.50
2019-05-10T18:28:54.687Z,3.10
2019-05-10T18:35:17.005Z,4.40
2019-05-10T18:37:53.689Z,1.87
2019-05-10T18:40:46.000Z,2.20
2019-05-10T18:43:16.322Z,1.40
2019-05-10T18:46:08.042Z,2.53
2019-05-10T18:48:58.087Z,4.97
2019-05-10T18:51:34.376Z,3.53
2019-05-10T18:54:22.719Z,3.00
2019-05-10T19:03:27.962Z,2.30
2019-05-10T19:06:16.541Z,1.97
2019-05-10T19:09:09.032Z,2.60
2019-05-10T19:12:01.123Z,3.00
2019-05-10T19:18:17.653Z,3.30
2019-05-10T19:20:53.357Z,3.80
2019-05-10T19:30:52.633Z,1.53
2019-05-10T19:36:15.150Z,2.10
2019-05-10T19:42:50.777Z,1.50
2019-05-10T19:48:35.249Z,2.63
2019-05-10T19:51:22.861Z,5.30
2019-05-10T19:54:32.969Z,2.73
2019-05-10T19:57:03.144Z,1.40
2019-05-10T19:59:53.040Z,1.43
2019-05-10T20:08:38.351Z,3.20
2019-05-10T20:11:10.602Z,3.77
2019-05-10T20:14:01.289Z,4.63
2019-05-10T20:16:32.477Z,4.13
2019-05-10T20:23:33.903Z,8.47
2019-05-10T20:26:23.911Z,6.20
2019-05-10T20:29:17.147Z,5.40
2019-05-10T20:32:12.828Z,10.70
2019-05-10T20:39:09.575Z,6.00
2019-05-10T20:41:59.434Z,4.63
2019-05-10T20:44:48.539Z,4.53
2019-05-10T20:47:38.654Z,4.55
2019-05-10T20:50:08.861Z,5.90
2019-05-10T20:52:59.038Z,4.30
2019-05-10T20:55:48.918Z,3.67
2019-05-10T21:02:28.107Z,3.50
2019-05-10T21:05:20.007Z,3.10
2019-05-10T21:08:16.948Z,3.83
2019-05-10T21:10:52.736Z,3.90
2019-05-10T21:16:20.698Z,3.63
2019-05-10T21:21:54.602Z,4.42
2019-05-10T21:27:22.765Z,3.80
2019-05-10T21:38:03.418Z,4.08
2019-05-10T21:43:58.831Z,5.27
2019-05-10T21:49:58.358Z,4.63
2019-05-10T21:53:08.446Z,6.03
2019-05-10T21:55:58.824Z,6.43
2019-05-10T21:58:49.261Z,4.00
2019-05-10T22:01:39.447Z,4.20
2019-05-10T22:11:38.279Z,3.60
2019-05-10T22:14:09.843Z,4.20
2019-05-10T22:17:21.320Z,7.10
2019-05-10T22:20:11.139Z,4.57
2019-05-10T22:23:20.053Z,6.70
2019-05-10T22:25:50.265Z,6.58
2019-05-10T22:28:42.556Z,4.20
2019-05-10T22:31:32.001Z,5.10
2019-05-10T22:34:21.772Z,4.10
2019-05-10T22:36:53.151Z,3.93
2019-05-10T22:39:44.373Z,4.33
2019-05-10T22:42:33.620Z,6.28
2019-05-10T22:45:23.237Z,3.70
2019-05-10T22:48:13.234Z,3.77
2019-05-10T22:51:03.583Z,3.60
2019-05-10T22:53:59.829Z,3.70
2019-05-10T22:56:45.095Z,4.90
2019-05-10T22:59:34.889Z,3.77
2019-05-10T23:02:44.625Z,3.83
2019-05-10T23:05:36.068Z,5.93
2019-05-10T23:08:28.449Z,5.90
2019-05-10T23:11:37.839Z,4.73
2019-05-10T23:17:50.086Z,3.98
2019-05-10T23:23:20.581Z,3.53
2019-05-10T23:28:45.147Z,4.20
2019-05-10T23:34:17.287Z,3.63
2019-05-10T23:39:44.180Z,5.53
2019-05-10T23:48:12.225Z,3.83
2019-05-10T23:53:41.522Z,3.37
2019-05-10T23:59:08.324Z,4.60
